Time,TemperatureF,DewpointF,PressureIn,WindDirection,WindDirectionDegrees,WindSpeedMPH,WindSpeedGustMPH,Humidity,HourlyPrecipIn,Conditions,Clouds,dailyrainin,SoftwareType,DateUTC
2013-02-19 00:02:00,33.4,30.2,28.80,NNW,338,13.0,21.0,88,0.00,,,0.00,meteohub,2013-02-19 06:02:00,
2013-02-19 00:07:00,33.3,29.8,28.80,NNE,22,6.0,24.0,87,0.00,,,0.00,meteohub,2013-02-19 06:07:00,
2013-02-19 00:12:00,33.3,29.8,28.80,ESE,112,6.0,24.0,87,0.00,,,0.00,meteohub,2013-02-19 06:12:00,
2013-02-19 00:17:00,33.1,29.7,28.80,ENE,68,11.0,24.0,87,0.00,,,0.00,meteohub,2013-02-19 06:17:00,
2013-02-19 00:22:00,32.9,28.9,28.80,SSW,202,10.0,17.0,85,0.00,,,0.00,meteohub,2013-02-19 06:22:00,
2013-02-19 00:27:00,32.7,28.8,28.80,ENE,68,8.0,17.0,85,0.00,,,0.00,meteohub,2013-02-19 06:27:00,
2013-02-19 00:32:00,32.2,27.3,28.80,NE,45,12.0,21.0,82,0.00,,,0.00,meteohub,2013-02-19 06:32:00,
2013-02-19 00:37:00,31.6,25.9,28.80,NNE,22,19.0,21.0,79,0.00,,,0.00,meteohub,2013-02-19 06:37:00,
2013-02-19 00:42:00,31.3,24.6,28.83,NE,45,15.0,21.0,76,0.00,,,0.00,meteohub,2013-02-19 06:42:00,
2013-02-19 00:47:00,30.9,23.4,28.83,NW,315,6.0,19.0,73,0.00,,,0.00,meteohub,2013-02-19 06:47:00,
2013-02-19 00:52:00,30.7,22.8,28.83,East,90,14.0,19.0,72,0.00,,,0.00,meteohub,2013-02-19 06:52:00,
2013-02-19 00:57:00,30.6,23.5,28.83,NNE,22,13.0,18.0,75,0.00,,,0.00,meteohub,2013-02-19 06:57:00,
2013-02-19 01:02:00,30.2,23.2,28.83,ENE,68,12.0,22.0,75,0.00,,,0.00,meteohub,2013-02-19 07:02:00,
2013-02-19 01:07:00,29.7,22.6,28.83,West,270,17.0,23.0,75,0.00,,,0.00,meteohub,2013-02-19 07:07:00,
2013-02-19 01:13:00,29.1,21.6,28.83,NNE,22,8.0,23.0,73,0.00,,,0.00,meteohub,2013-02-19 07:13:00,
2013-02-19 01:18:00,28.6,20.5,28.83,SE,135,8.0,23.0,71,0.00,,,0.00,meteohub,2013-02-19 07:18:00,
2013-02-19 01:23:00,28.2,19.8,28.83,NNE,22,11.0,20.0,70,0.00,,,0.00,meteohub,2013-02-19 07:23:00,
2013-02-19 01:28:00,27.9,19.4,28.83,ENE,68,9.0,21.0,70,0.00,,,0.00,meteohub,2013-02-19 07:28:00,
2013-02-19 01:33:00,27.7,19.6,28.83,ENE,68,13.0,21.0,71,0.00,,,0.00,meteohub,2013-02-19 07:33:00,
2013-02-19 01:38:00,27.7,19.2,28.83,NNW,338,15.0,21.0,70,0.00,,,0.00,meteohub,2013-02-19 07:38:00,
2013-02-19 01:43:00,27.3,18.9,28.86,NNE,22,13.0,23.0,70,0.00,,,0.00,meteohub,2013-02-19 07:43:00,
2013-02-19 01:48:00,26.8,16.3,28.86,ENE,68,23.0,28.0,64,0.00,,,0.00,meteohub,2013-02-19 07:48:00,
2013-02-19 01:53:00,26.2,15.1,28.86,NNW,338,6.0,28.0,62,0.00,,,0.00,meteohub,2013-02-19 07:53:00,
2013-02-19 01:58:00,26.2,15.8,28.86,ENE,68,15.0,28.0,64,0.00,,,0.00,meteohub,2013-02-19 07:58:00,
2013-02-19 02:03:00,26.1,16.3,28.86,NNE,22,12.0,27.0,66,0.00,,,0.00,meteohub,2013-02-19 08:03:00,
2013-02-19 02:08:00,26.1,16.9,28.86,NNE,22,12.0,21.0,68,0.00,,,0.00,meteohub,2013-02-19 08:08:00,
2013-02-19 02:13:00,25.7,16.3,28.86,NNE,22,11.0,21.0,67,0.00,,,0.00,meteohub,2013-02-19 08:13:00,
2013-02-19 02:18:00,25.5,16.5,28.86,ESE,112,10.0,25.0,68,0.00,,,0.00,meteohub,2013-02-19 08:18:00,
2013-02-19 02:23:00,25.3,16.0,28.86,NNE,22,15.0,25.0,67,0.00,,,0.00,meteohub,2013-02-19 08:23:00,
2013-02-19 02:28:00,25.2,15.8,28.89,NNE,22,6.0,25.0,67,0.00,,,0.00,meteohub,2013-02-19 08:28:00,
2013-02-19 02:33:00,24.6,14.5,28.89,ESE,112,10.0,23.0,65,0.00,,,0.00,meteohub,2013-02-19 08:33:00,
2013-02-19 02:38:00,24.4,14.0,28.89,NNE,22,12.0,23.0,64,0.00,,,0.00,meteohub,2013-02-19 08:38:00,
2013-02-19 02:43:00,24.1,12.6,28.89,North,0,15.0,19.0,61,0.00,,,0.00,meteohub,2013-02-19 08:43:00,
2013-02-19 02:48:00,23.9,12.4,28.89,NNE,22,10.0,22.0,61,0.00,,,0.00,meteohub,2013-02-19 08:48:00,
2013-02-19 02:53:00,23.9,12.7,28.89,NNE,22,6.0,23.0,62,0.00,,,0.00,meteohub,2013-02-19 08:53:00,
2013-02-19 02:58:00,23.7,11.8,28.89,NNW,338,15.0,23.0,60,0.00,,,0.00,meteohub,2013-02-19 08:58:00,
2013-02-19 03:03:00,23.5,11.7,28.89,NE,45,19.0,23.0,60,0.00,,,0.00,meteohub,2013-02-19 09:03:00,
2013-02-19 03:08:00,23.5,11.7,28.89,NNE,22,12.0,23.0,60,0.00,,,0.00,meteohub,2013-02-19 09:08:00,
2013-02-19 03:13:00,23.2,10.6,28.92,SW,225,4.0,27.0,58,0.00,,,0.00,meteohub,2013-02-19 09:13:00,
2013-02-19 03:18:00,23.0,11.1,28.92,NNE,22,12.0,27.0,60,0.00,,,0.00,meteohub,2013-02-19 09:18:00,
2013-02-19 03:23:00,22.8,10.6,28.92,North,0,10.0,27.0,59,0.00,,,0.00,meteohub,2013-02-19 09:23:00,
2013-02-19 03:28:00,22.3,9.0,28.92,ENE,68,7.0,27.0,56,0.00,,,0.00,meteohub,2013-02-19 09:28:00,
2013-02-19 03:33:00,22.1,9.1,28.92,NNE,22,12.0,29.0,57,0.00,,,0.00,meteohub,2013-02-19 09:33:00,
2013-02-19 03:38:00,22.1,8.4,28.92,NNE,22,10.0,29.0,55,0.00,,,0.00,meteohub,2013-02-19 09:38:00,
2013-02-19 03:43:00,22.1,8.1,28.92,NNE,22,9.0,29.0,54,0.00,,,0.00,meteohub,2013-02-19 09:43:00,
2013-02-19 03:48:00,22.1,8.4,28.92,NNE,22,11.0,29.0,55,0.00,,,0.00,meteohub,2013-02-19 09:48:00,
2013-02-19 03:53:00,22.1,8.8,28.92,ESE,112,10.0,25.0,56,0.00,,,0.00,meteohub,2013-02-19 09:53:00,
2013-02-19 03:58:00,21.9,9.5,28.92,NNE,22,20.0,25.0,58,0.00,,,0.00,meteohub,2013-02-19 09:58:00,
2013-02-19 04:03:00,21.7,9.7,28.92,North,0,10.0,20.0,59,0.00,,,0.00,meteohub,2013-02-19 10:03:00,
2013-02-19 04:08:00,21.6,9.5,28.92,North,0,11.0,20.0,59,0.00,,,0.00,meteohub,2013-02-19 10:08:00,
2013-02-19 04:13:00,21.2,8.4,28.92,NNE,22,21.0,21.0,57,0.00,,,0.00,meteohub,2013-02-19 10:13:00,
2013-02-19 04:18:00,21.2,8.4,28.92,ENE,68,10.0,27.0,57,0.00,,,0.00,meteohub,2013-02-19 10:18:00,
2013-02-19 04:23:00,21.0,8.6,28.92,ENE,68,11.0,27.0,58,0.00,,,0.00,meteohub,2013-02-19 10:23:00,
2013-02-19 04:28:00,20.8,7.7,28.92,NNW,338,14.0,27.0,56,0.00,,,0.00,meteohub,2013-02-19 10:28:00,
2013-02-19 04:33:00,20.5,6.1,28.92,ENE,68,6.0,23.0,53,0.00,,,0.00,meteohub,2013-02-19 10:33:00,
2013-02-19 04:39:00,20.3,5.9,28.92,NNW,338,18.0,23.0,53,0.00,,,0.00,meteohub,2013-02-19 10:39:00,
2013-02-19 04:44:00,20.3,6.3,28.92,NNE,22,9.0,24.0,54,0.00,,,0.00,meteohub,2013-02-19 10:44:00,
2013-02-19 04:49:00,20.1,6.1,28.92,NNE,22,9.0,24.0,54,0.00,,,0.00,meteohub,2013-02-19 10:49:00,
2013-02-19 04:54:00,20.1,6.6,28.95,NNE,22,11.0,24.0,55,0.00,,,0.00,meteohub,2013-02-19 10:54:00,
2013-02-19 04:59:00,19.9,5.2,28.95,NNE,22,13.0,23.0,52,0.00,,,0.00,meteohub,2013-02-19 10:59:00,
2013-02-19 05:04:00,19.8,5.4,28.95,NNW,338,6.0,23.0,53,0.00,,,0.00,meteohub,2013-02-19 11:04:00,
2013-02-19 05:09:00,19.8,5.0,28.95,NNW,338,9.0,23.0,52,0.00,,,0.00,meteohub,2013-02-19 11:09:00,
2013-02-19 05:14:00,19.6,4.5,28.95,NNE,22,22.0,23.0,51,0.00,,,0.00,meteohub,2013-02-19 11:14:00,
2013-02-19 05:19:00,19.6,4.8,28.95,NNE,22,7.0,23.0,52,0.00,,,0.00,meteohub,2013-02-19 11:19:00,
2013-02-19 05:24:00,19.4,4.6,28.95,NNE,22,10.0,23.0,52,0.00,,,0.00,meteohub,2013-02-19 11:24:00,
2013-02-19 05:29:00,19.2,3.7,28.95,NNE,22,9.0,23.0,50,0.00,,,0.00,meteohub,2013-02-19 11:29:00,
2013-02-19 05:34:00,19.2,4.5,28.95,North,0,14.0,21.0,52,0.00,,,0.00,meteohub,2013-02-19 11:34:00,
2013-02-19 05:39:00,19.2,4.5,28.95,North,0,13.0,21.0,52,0.00,,,0.00,meteohub,2013-02-19 11:39:00,
2013-02-19 05:44:00,19.2,5.4,28.95,ENE,68,13.0,24.0,54,0.00,,,0.00,meteohub,2013-02-19 11:44:00,
2013-02-19 05:49:00,18.9,3.4,28.95,NNE,22,17.0,24.0,50,0.00,,,0.00,meteohub,2013-02-19 11:49:00,
2013-02-19 05:54:00,18.7,3.6,28.95,NNE,22,10.0,20.0,51,0.00,,,0.00,meteohub,2013-02-19 11:54:00,
2013-02-19 05:59:00,18.7,4.5,28.95,ENE,68,6.0,25.0,53,0.00,,,0.00,meteohub,2013-02-19 11:59:00,
2013-02-19 06:04:00,18.7,4.8,28.95,NNE,22,6.0,25.0,54,0.00,,,0.00,meteohub,2013-02-19 12:04:00,
2013-02-19 06:09:00,18.7,5.5,28.95,NNE,22,6.0,23.0,56,0.00,,,0.00,meteohub,2013-02-19 12:09:00,
2013-02-19 06:14:00,18.5,6.3,28.95,ENE,68,12.0,17.0,58,0.00,,,0.00,meteohub,2013-02-19 12:14:00,
2013-02-19 06:19:00,18.0,4.1,28.95,NNE,22,11.0,17.0,54,0.00,,,0.00,meteohub,2013-02-19 12:19:00,
2013-02-19 06:24:00,17.8,3.9,28.95,NNE,22,13.0,23.0,54,0.00,,,0.00,meteohub,2013-02-19 12:24:00,
2013-02-19 06:29:00,17.6,2.7,28.95,NNE,22,6.0,23.0,51,0.00,,,0.00,meteohub,2013-02-19 12:29:00,
2013-02-19 06:34:00,17.4,3.2,28.95,North,0,13.0,23.0,53,0.00,,,0.00,meteohub,2013-02-19 12:34:00,
2013-02-19 06:39:00,17.1,2.8,28.95,SSE,158,9.0,20.0,53,0.00,,,0.00,meteohub,2013-02-19 12:39:00,
2013-02-19 06:44:00,16.9,1.9,28.95,NNE,22,13.0,20.0,51,0.00,,,0.00,meteohub,2013-02-19 12:44:00,
2013-02-19 06:49:00,16.7,1.4,28.95,ENE,68,10.0,18.0,50,0.00,,,0.00,meteohub,2013-02-19 12:49:00,
2013-02-19 06:54:00,16.7,1.8,28.95,NNE,22,9.0,18.0,51,0.00,,,0.00,meteohub,2013-02-19 12:54:00,
2013-02-19 06:59:00,16.7,1.8,28.95,WNW,292,6.0,18.0,51,0.00,,,0.00,meteohub,2013-02-19 12:59:00,
2013-02-19 07:04:00,16.5,1.9,28.95,WSW,248,13.0,18.0,52,0.00,,,0.00,meteohub,2013-02-19 13:04:00,
2013-02-19 07:09:00,16.5,1.9,28.95,North,0,5.0,19.0,52,0.00,,,0.00,meteohub,2013-02-19 13:09:00,
2013-02-19 07:14:00,16.3,1.0,28.95,ENE,68,11.0,20.0,50,0.00,,,0.00,meteohub,2013-02-19 13:14:00,
2013-02-19 07:19:00,16.2,0.9,28.95,ENE,68,10.0,20.0,50,0.00,,,0.00,meteohub,2013-02-19 13:19:00,
2013-02-19 07:24:00,16.0,-1.1,28.95,NNE,22,17.0,24.0,46,0.00,,,0.00,meteohub,2013-02-19 13:24:00,
2013-02-19 07:29:00,15.8,-1.3,28.95,NNE,22,15.0,26.0,46,0.00,,,0.00,meteohub,2013-02-19 13:29:00,
2013-02-19 07:34:00,15.8,-1.7,28.95,NNW,338,9.0,26.0,45,0.00,,,0.00,meteohub,2013-02-19 13:34:00,
2013-02-19 07:39:00,16.0,-1.7,28.95,NNE,22,10.0,26.0,45,0.00,,,0.00,meteohub,2013-02-19 13:39:00,
2013-02-19 07:44:00,16.0,-1.1,28.95,NNE,22,11.0,26.0,46,0.00,,,0.00,meteohub,2013-02-19 13:44:00,
2013-02-19 07:49:00,15.8,-1.3,28.95,North,0,13.0,22.0,46,0.00,,,0.00,meteohub,2013-02-19 13:49:00,
2013-02-19 07:55:00,15.8,-0.4,28.95,NNE,22,14.0,22.0,48,0.00,,,0.00,meteohub,2013-02-19 13:55:00,
2013-02-19 08:00:00,15.6,0.0,28.95,NNE,22,8.0,23.0,49,0.00,,,0.00,meteohub,2013-02-19 14:00:00,
2013-02-19 08:05:00,15.6,-0.9,28.95,NW,315,18.0,23.0,47,0.00,,,0.00,meteohub,2013-02-19 14:05:00,
2013-02-19 08:10:00,15.6,-1.5,28.95,NE,45,15.0,23.0,46,0.00,,,0.00,meteohub,2013-02-19 14:10:00,
2013-02-19 08:15:00,15.6,-1.5,28.95,NNE,22,8.0,23.0,46,0.00,,,0.00,meteohub,2013-02-19 14:15:00,
2013-02-19 08:20:00,15.8,-1.3,28.95,NNW,338,11.0,23.0,46,0.00,,,0.00,meteohub,2013-02-19 14:20:00,
2013-02-19 08:25:00,15.6,-1.5,28.95,ENE,68,9.0,22.0,46,0.00,,,0.00,meteohub,2013-02-19 14:25:00,
2013-02-19 08:30:00,15.4,-1.1,28.95,NNE,22,15.0,25.0,47,0.00,,,0.00,meteohub,2013-02-19 14:30:00,
2013-02-19 08:35:00,15.4,0.1,28.95,NNE,22,7.0,25.0,50,0.00,,,0.00,meteohub,2013-02-19 14:35:00,
2013-02-19 08:40:00,15.3,1.9,28.95,North,0,14.0,20.0,55,0.00,,,0.00,meteohub,2013-02-19 14:40:00,
2013-02-19 08:45:00,15.3,1.9,28.95,NNE,22,10.0,17.0,55,0.00,,,0.00,meteohub,2013-02-19 14:45:00,
2013-02-19 08:50:00,15.1,0.3,28.95,NNW,338,19.0,19.0,51,0.00,,,0.00,meteohub,2013-02-19 14:50:00,
2013-02-19 08:55:00,15.1,-1.1,28.92,NNE,22,15.0,22.0,48,0.00,,,0.00,meteohub,2013-02-19 14:55:00,
2013-02-19 09:00:00,15.1,-1.1,28.92,NNE,22,17.0,22.0,48,0.00,,,0.00,meteohub,2013-02-19 15:00:00,
2013-02-19 09:05:00,14.9,-1.7,28.92,NNW,338,11.0,22.0,47,0.00,,,0.00,meteohub,2013-02-19 15:05:00,
2013-02-19 09:10:00,14.9,-2.2,28.92,WNW,292,6.0,20.0,46,0.00,,,0.00,meteohub,2013-02-19 15:10:00,
2013-02-19 09:15:00,14.9,-2.6,28.92,NNE,22,22.0,23.0,45,0.00,,,0.00,meteohub,2013-02-19 15:15:00,
2013-02-19 09:20:00,15.3,-2.2,28.92,North,0,6.0,23.0,45,0.00,,,0.00,meteohub,2013-02-19 15:20:00,
2013-02-19 09:25:00,15.1,-2.4,28.95,NNE,22,19.0,24.0,45,0.00,,,0.00,meteohub,2013-02-19 15:25:00,
2013-02-19 09:30:00,15.8,-1.7,28.95,NNW,338,12.0,24.0,45,0.00,,,0.00,meteohub,2013-02-19 15:30:00,
2013-02-19 09:35:00,16.2,-1.8,28.95,NNE,22,4.0,24.0,44,0.00,,,0.00,meteohub,2013-02-19 15:35:00,
2013-02-19 09:40:00,15.8,-2.2,28.95,NE,45,18.0,23.0,44,0.00,,,0.00,meteohub,2013-02-19 15:40:00,
2013-02-19 09:45:00,15.3,-2.7,28.95,NNE,22,17.0,23.0,44,0.00,,,0.00,meteohub,2013-02-19 15:45:00,
2013-02-19 09:50:00,15.3,-2.2,28.95,NNE,22,11.0,21.0,45,0.00,,,0.00,meteohub,2013-02-19 15:50:00,
2013-02-19 09:55:00,15.3,-2.7,28.95,NNE,22,17.0,27.0,44,0.00,,,0.00,meteohub,2013-02-19 15:55:00,
2013-02-19 10:00:00,15.6,-1.8,28.95,NNE,22,6.0,27.0,45,0.00,,,0.00,meteohub,2013-02-19 16:00:00,
2013-02-19 10:05:00,15.6,-2.4,28.95,ENE,68,17.0,27.0,44,0.00,,,0.00,meteohub,2013-02-19 16:05:00,
2013-02-19 10:10:00,15.3,-2.2,28.95,North,0,6.0,20.0,45,0.00,,,0.00,meteohub,2013-02-19 16:10:00,
2013-02-19 10:15:00,15.6,-1.5,28.95,NNE,22,7.0,19.0,46,0.00,,,0.00,meteohub,2013-02-19 16:15:00,
2013-02-19 10:20:00,15.4,-2.6,28.95,NNE,22,10.0,17.0,44,0.00,,,0.00,meteohub,2013-02-19 16:20:00,
2013-02-19 10:25:00,15.4,-2.6,28.98,ENE,68,10.0,23.0,44,0.00,,,0.00,meteohub,2013-02-19 16:25:00,
2013-02-19 10:30:00,15.4,-2.0,28.98,ENE,68,8.0,23.0,45,0.00,,,0.00,meteohub,2013-02-19 16:30:00,
2013-02-19 10:35:00,15.3,-2.7,28.98,ENE,68,12.0,18.0,44,0.00,,,0.00,meteohub,2013-02-19 16:35:00,
2013-02-19 10:40:00,15.4,-2.6,28.98,NNE,22,8.0,22.0,44,0.00,,,0.00,meteohub,2013-02-19 16:40:00,
2013-02-19 10:45:00,15.8,-2.2,28.98,SE,135,9.0,22.0,44,0.00,,,0.00,meteohub,2013-02-19 16:45:00,
2013-02-19 10:50:00,15.8,-2.7,28.98,NNW,338,11.0,22.0,43,0.00,,,0.00,meteohub,2013-02-19 16:50:00,
2013-02-19 10:55:00,16.0,-2.6,28.98,ENE,68,6.0,20.0,43,0.00,,,0.00,meteohub,2013-02-19 16:55:00,
2013-02-19 11:00:00,15.4,-2.6,28.98,NNW,338,3.0,20.0,44,0.00,,,0.00,meteohub,2013-02-19 17:00:00,
2013-02-19 11:05:00,15.4,-2.6,28.98,NNE,22,6.0,20.0,44,0.00,,,0.00,meteohub,2013-02-19 17:05:00,
2013-02-19 11:10:00,15.6,-3.8,28.98,NNE,22,19.0,20.0,41,0.00,,,0.00,meteohub,2013-02-19 17:10:00,
2013-02-19 11:15:00,16.0,-4.5,28.98,NNE,22,9.0,24.0,39,0.00,,,0.00,meteohub,2013-02-19 17:15:00,
2013-02-19 11:20:00,16.0,-3.5,28.98,ENE,68,13.0,24.0,41,0.00,,,0.00,meteohub,2013-02-19 17:20:00,
2013-02-19 11:25:00,16.5,-1.5,28.98,NNE,22,4.0,24.0,44,0.00,,,0.00,meteohub,2013-02-19 17:25:00,
2013-02-19 11:30:00,16.7,-1.8,28.98,NNE,22,11.0,21.0,43,0.00,,,0.00,meteohub,2013-02-19 17:30:00,
2013-02-19 11:35:00,16.2,-1.8,28.98,NNE,22,11.0,19.0,44,0.00,,,0.00,meteohub,2013-02-19 17:35:00,
2013-02-19 11:40:00,16.2,-1.8,28.98,East,90,12.0,20.0,44,0.00,,,0.00,meteohub,2013-02-19 17:40:00,
2013-02-19 11:45:00,16.5,-2.0,28.98,West,270,8.0,20.0,43,0.00,,,0.00,meteohub,2013-02-19 17:45:00,
2013-02-19 11:50:00,16.0,-2.0,28.98,ENE,68,11.0,20.0,44,0.00,,,0.00,meteohub,2013-02-19 17:50:00,
2013-02-19 11:56:00,16.0,-2.0,28.98,NE,45,20.0,20.0,44,0.00,,,0.00,meteohub,2013-02-19 17:56:00,
2013-02-19 12:00:00,15.8,-3.6,28.98,NNW,338,10.0,20.0,41,0.00,,,0.00,meteohub,2013-02-19 18:00:00,
2013-02-19 12:06:00,16.0,-4.0,28.98,NNE,22,13.0,20.0,40,0.00,,,0.00,meteohub,2013-02-19 18:06:00,
2013-02-19 12:11:00,16.0,-4.0,28.98,North,0,9.0,20.0,40,0.00,,,0.00,meteohub,2013-02-19 18:11:00,
2013-02-19 12:16:00,15.8,-4.2,28.98,WNW,292,9.0,22.0,40,0.00,,,0.00,meteohub,2013-02-19 18:16:00,
2013-02-19 12:21:00,15.8,-2.7,28.98,NNE,22,6.0,22.0,43,0.00,,,0.00,meteohub,2013-02-19 18:21:00,
2013-02-19 12:26:00,15.4,-2.6,28.98,NNE,22,13.0,22.0,44,0.00,,,0.00,meteohub,2013-02-19 18:26:00,
2013-02-19 12:31:00,15.4,-2.6,28.98,ENE,68,16.0,22.0,44,0.00,,,0.00,meteohub,2013-02-19 18:31:00,
2013-02-19 12:36:00,15.3,-3.3,28.98,ENE,68,8.0,22.0,43,0.00,,,0.00,meteohub,2013-02-19 18:36:00,
2013-02-19 12:41:00,15.1,-2.9,28.98,North,0,13.0,21.0,44,0.00,,,0.00,meteohub,2013-02-19 18:41:00,
2013-02-19 12:46:00,15.3,-2.2,28.98,NNE,22,3.0,21.0,45,0.00,,,0.00,meteohub,2013-02-19 18:46:00,
2013-02-19 12:51:00,15.4,-2.0,28.98,NNE,22,6.0,20.0,45,0.00,,,0.00,meteohub,2013-02-19 18:51:00,
2013-02-19 12:56:00,15.6,-2.4,28.98,ENE,68,8.0,20.0,44,0.00,,,0.00,meteohub,2013-02-19 18:56:00,
2013-02-19 13:01:00,15.1,-4.4,28.98,North,0,19.0,23.0,41,0.00,,,0.00,meteohub,2013-02-19 19:01:00,
2013-02-19 13:06:00,15.1,-4.9,28.98,NNE,22,11.0,23.0,40,0.00,,,0.00,meteohub,2013-02-19 19:06:00,
2013-02-19 13:11:00,15.4,-4.5,29.01,ENE,68,20.0,23.0,40,0.00,,,0.00,meteohub,2013-02-19 19:11:00,
2013-02-19 13:16:00,15.3,-4.7,29.01,NNE,22,14.0,22.0,40,0.00,,,0.00,meteohub,2013-02-19 19:16:00,
2013-02-19 13:21:00,15.4,-3.5,29.01,NNE,22,11.0,20.0,42,0.00,,,0.00,meteohub,2013-02-19 19:21:00,
2013-02-19 13:26:00,15.6,-2.4,28.98,NNW,338,6.0,21.0,44,0.00,,,0.00,meteohub,2013-02-19 19:26:00,
2013-02-19 13:31:00,15.8,-3.3,28.98,NNE,22,13.0,21.0,42,0.00,,,0.00,meteohub,2013-02-19 19:31:00,
2013-02-19 13:36:00,16.0,-3.1,28.98,NNE,22,9.0,15.0,42,0.00,,,0.00,meteohub,2013-02-19 19:36:00,
2013-02-19 13:41:00,16.2,-2.4,29.01,NNW,338,12.0,18.0,43,0.00,,,0.00,meteohub,2013-02-19 19:41:00,
2013-02-19 13:46:00,15.6,-2.4,29.01,NNE,22,13.0,18.0,44,0.00,,,0.00,meteohub,2013-02-19 19:46:00,
2013-02-19 13:51:00,15.4,-2.6,29.01,NE,45,6.0,23.0,44,0.00,,,0.00,meteohub,2013-02-19 19:51:00,
2013-02-19 13:56:00,15.8,-3.6,29.01,NNW,338,11.0,23.0,41,0.00,,,0.00,meteohub,2013-02-19 19:56:00,
2013-02-19 14:01:00,15.4,-4.0,29.01,NNW,338,14.0,23.0,41,0.00,,,0.00,meteohub,2013-02-19 20:01:00,
2013-02-19 14:06:00,15.3,-3.3,29.01,ENE,68,10.0,20.0,43,0.00,,,0.00,meteohub,2013-02-19 20:06:00,
2013-02-19 14:11:00,15.1,-3.3,29.01,NNE,22,12.0,20.0,43,0.00,,,0.00,meteohub,2013-02-19 20:11:00,
2013-02-19 14:16:00,15.1,-3.8,29.01,NNE,22,11.0,21.0,42,0.00,,,0.00,meteohub,2013-02-19 20:16:00,
2013-02-19 14:21:00,15.3,-3.3,29.01,ENE,68,11.0,21.0,43,0.00,,,0.00,meteohub,2013-02-19 20:21:00,
2013-02-19 14:26:00,15.3,-2.7,29.04,ENE,68,10.0,21.0,44,0.00,,,0.00,meteohub,2013-02-19 20:26:00,
2013-02-19 14:31:00,15.4,-2.6,29.04,ESE,112,6.0,20.0,44,0.00,,,0.00,meteohub,2013-02-19 20:31:00,
2013-02-19 14:36:00,15.4,-2.6,29.04,NNE,22,9.0,20.0,44,0.00,,,0.00,meteohub,2013-02-19 20:36:00,
2013-02-19 14:41:00,15.4,-3.1,29.04,ENE,68,11.0,17.0,43,0.00,,,0.00,meteohub,2013-02-19 20:41:00,
2013-02-19 14:46:00,15.4,-2.6,29.04,NNE,22,9.0,19.0,44,0.00,,,0.00,meteohub,2013-02-19 20:46:00,
2013-02-19 14:51:00,15.3,-2.2,29.04,NNE,22,13.0,19.0,45,0.00,,,0.00,meteohub,2013-02-19 20:51:00,
2013-02-19 14:56:00,15.1,-2.0,29.07,North,0,4.0,19.0,46,0.00,,,0.00,meteohub,2013-02-19 20:56:00,
2013-02-19 15:01:00,14.9,-1.7,29.07,WNW,292,8.0,18.0,47,0.00,,,0.00,meteohub,2013-02-19 21:01:00,
2013-02-19 15:06:00,14.9,-1.7,29.07,NNE,22,8.0,18.0,47,0.00,,,0.00,meteohub,2013-02-19 21:06:00,
2013-02-19 15:11:00,14.5,-2.9,29.07,ENE,68,12.0,18.0,45,0.00,,,0.00,meteohub,2013-02-19 21:11:00,
2013-02-19 15:16:00,14.5,-2.9,29.07,NNE,22,10.0,18.0,45,0.00,,,0.00,meteohub,2013-02-19 21:16:00,
2013-02-19 15:21:00,14.9,-2.2,29.07,ESE,112,4.0,17.0,46,0.00,,,0.00,meteohub,2013-02-19 21:21:00,
2013-02-19 15:26:00,14.4,-3.1,29.07,ENE,68,13.0,17.0,45,0.00,,,0.00,meteohub,2013-02-19 21:26:00,
2013-02-19 15:31:00,14.5,-2.9,29.07,NNE,22,8.0,17.0,45,0.00,,,0.00,meteohub,2013-02-19 21:31:00,
2013-02-19 15:36:00,14.4,-3.1,29.07,ENE,68,6.0,17.0,45,0.00,,,0.00,meteohub,2013-02-19 21:36:00,
2013-02-19 15:41:00,14.4,-3.5,29.07,NNE,22,13.0,17.0,44,0.00,,,0.00,meteohub,2013-02-19 21:41:00,
2013-02-19 15:46:00,14.2,-3.6,29.07,NNE,22,4.0,18.0,44,0.00,,,0.00,meteohub,2013-02-19 21:46:00,
2013-02-19 15:51:00,14.4,-3.1,29.07,NE,45,17.0,18.0,45,0.00,,,0.00,meteohub,2013-02-19 21:51:00,
2013-02-19 15:56:00,14.2,-3.3,29.10,NNW,338,11.0,18.0,45,0.00,,,0.00,meteohub,2013-02-19 21:56:00,
2013-02-19 16:01:00,14.2,-3.3,29.10,NNE,22,12.0,18.0,45,0.00,,,0.00,meteohub,2013-02-19 22:01:00,
2013-02-19 16:06:00,14.2,-3.3,29.10,North,0,13.0,20.0,45,0.00,,,0.00,meteohub,2013-02-19 22:06:00,
2013-02-19 16:12:00,14.2,-3.3,29.13,ENE,68,8.0,20.0,45,0.00,,,0.00,meteohub,2013-02-19 22:12:00,
2013-02-19 16:17:00,14.4,-3.1,29.13,ENE,68,6.0,20.0,45,0.00,,,0.00,meteohub,2013-02-19 22:17:00,
2013-02-19 16:22:00,14.4,-3.1,29.13,NNW,338,4.0,17.0,45,0.00,,,0.00,meteohub,2013-02-19 22:22:00,
2013-02-19 16:27:00,14.4,-3.1,29.13,WSW,248,6.0,17.0,45,0.00,,,0.00,meteohub,2013-02-19 22:27:00,
2013-02-19 16:32:00,14.2,-3.3,29.13,ENE,68,6.0,21.0,45,0.00,,,0.00,meteohub,2013-02-19 22:32:00,
2013-02-19 16:37:00,14.4,-2.6,29.13,NNE,22,11.0,21.0,46,0.00,,,0.00,meteohub,2013-02-19 22:37:00,
2013-02-19 16:42:00,14.2,-2.7,29.16,NNW,338,11.0,21.0,46,0.00,,,0.00,meteohub,2013-02-19 22:42:00,
2013-02-19 16:47:00,14.4,-2.2,29.16,NNE,22,4.0,17.0,47,0.00,,,0.00,meteohub,2013-02-19 22:47:00,
2013-02-19 16:52:00,14.4,-2.6,29.16,NNW,338,6.0,17.0,46,0.00,,,0.00,meteohub,2013-02-19 22:52:00,
2013-02-19 16:57:00,14.2,-2.4,29.16,NNE,22,8.0,17.0,47,0.00,,,0.00,meteohub,2013-02-19 22:57:00,
2013-02-19 17:02:00,14.2,-2.7,29.16,NNE,22,8.0,18.0,46,0.00,,,0.00,meteohub,2013-02-19 23:02:00,
2013-02-19 17:07:00,14.2,-2.7,29.16,NNE,22,6.0,20.0,46,0.00,,,0.00,meteohub,2013-02-19 23:07:00,
2013-02-19 17:12:00,14.4,-2.2,29.16,NNE,22,10.0,20.0,47,0.00,,,0.00,meteohub,2013-02-19 23:12:00,
2013-02-19 17:17:00,14.2,-2.4,29.16,NNE,22,12.0,20.0,47,0.00,,,0.00,meteohub,2013-02-19 23:17:00,
2013-02-19 17:22:00,14.2,-2.4,29.16,East,90,10.0,17.0,47,0.00,,,0.00,meteohub,2013-02-19 23:22:00,
2013-02-19 17:27:00,14.2,-2.7,29.16,North,0,10.0,19.0,46,0.00,,,0.00,meteohub,2013-02-19 23:27:00,
2013-02-19 17:32:00,14.2,-2.4,29.16,ENE,68,14.0,19.0,47,0.00,,,0.00,meteohub,2013-02-19 23:32:00,
2013-02-19 17:37:00,14.2,-2.4,29.16,ENE,68,8.0,19.0,47,0.00,,,0.00,meteohub,2013-02-19 23:37:00,
2013-02-19 17:42:00,14.2,-2.7,29.19,NNE,22,12.0,21.0,46,0.00,,,0.00,meteohub,2013-02-19 23:42:00,
2013-02-19 17:47:00,14.2,-2.7,29.19,ENE,68,10.0,23.0,46,0.00,,,0.00,meteohub,2013-02-19 23:47:00,
2013-02-19 17:52:00,14.2,-2.7,29.19,NNE,22,13.0,23.0,46,0.00,,,0.00,meteohub,2013-02-19 23:52:00,
2013-02-19 17:57:00,14.2,-2.7,29.19,NNE,22,3.0,19.0,46,0.00,,,0.00,meteohub,2013-02-19 23:57:00,
2013-02-19 18:02:00,14.0,-2.9,29.19,NNE,22,11.0,19.0,46,0.00,,,0.00,meteohub,2013-02-20 00:02:00,
2013-02-19 18:07:00,14.0,-2.9,29.19,ENE,68,13.0,19.0,46,0.00,,,0.00,meteohub,2013-02-20 00:07:00,
2013-02-19 18:12:00,14.2,-2.7,29.19,NNE,22,10.0,19.0,46,0.00,,,0.00,meteohub,2013-02-20 00:12:00,
2013-02-19 18:17:00,14.2,-2.4,29.19,NNE,22,8.0,19.0,47,0.00,,,0.00,meteohub,2013-02-20 00:17:00,
2013-02-19 18:22:00,14.2,-1.8,29.19,ENE,68,9.0,17.0,48,0.00,,,0.00,meteohub,2013-02-20 00:22:00,
2013-02-19 18:27:00,14.2,-1.8,29.19,NNE,22,11.0,15.0,48,0.00,,,0.00,meteohub,2013-02-20 00:27:00,
2013-02-19 18:32:00,14.2,-1.5,29.19,NNE,22,9.0,16.0,49,0.00,,,0.00,meteohub,2013-02-20 00:32:00,
2013-02-19 18:37:00,14.2,-1.5,29.19,NNE,22,14.0,16.0,49,0.00,,,0.00,meteohub,2013-02-20 00:37:00,
2013-02-19 18:42:00,14.2,-1.5,29.19,NNE,22,12.0,16.0,49,0.00,,,0.00,meteohub,2013-02-20 00:42:00,
2013-02-19 18:47:00,14.2,-0.9,29.19,East,90,6.0,19.0,50,0.00,,,0.00,meteohub,2013-02-20 00:47:00,
2013-02-19 18:52:00,14.2,-0.9,29.19,NNE,22,6.0,19.0,50,0.00,,,0.00,meteohub,2013-02-20 00:52:00,
2013-02-19 18:57:00,14.2,-0.9,29.22,ENE,68,4.0,19.0,50,0.00,,,0.00,meteohub,2013-02-20 00:57:00,
2013-02-19 19:02:00,14.2,-0.6,29.22,NNE,22,15.0,19.0,51,0.00,,,0.00,meteohub,2013-02-20 01:02:00,
2013-02-19 19:07:00,14.2,-0.2,29.22,East,90,8.0,19.0,52,0.00,,,0.00,meteohub,2013-02-20 01:07:00,
2013-02-19 19:12:00,14.0,0.5,29.22,ENE,68,9.0,15.0,54,0.00,,,0.00,meteohub,2013-02-20 01:12:00,
2013-02-19 19:17:00,14.0,0.5,29.22,NNE,22,10.0,15.0,54,0.00,,,0.00,meteohub,2013-02-20 01:17:00,
2013-02-19 19:22:00,14.0,0.5,29.22,ENE,68,8.0,15.0,54,0.00,,,0.00,meteohub,2013-02-20 01:22:00,
2013-02-19 19:27:00,14.0,0.5,29.22,ENE,68,10.0,15.0,54,0.00,,,0.00,meteohub,2013-02-20 01:27:00,
2013-02-19 19:32:00,14.2,-1.8,29.22,ENE,68,14.0,18.0,48,0.00,,,0.00,meteohub,2013-02-20 01:32:00,
2013-02-19 19:37:00,14.2,-2.4,29.22,NNE,22,11.0,18.0,47,0.00,,,0.00,meteohub,2013-02-20 01:37:00,
2013-02-19 19:42:00,14.2,-2.7,29.22,ENE,68,13.0,18.0,46,0.00,,,0.00,meteohub,2013-02-20 01:42:00,
2013-02-19 19:47:00,14.2,-2.7,29.22,ESE,112,6.0,21.0,46,0.00,,,0.00,meteohub,2013-02-20 01:47:00,
2013-02-19 19:52:00,14.2,-2.7,29.22,ENE,68,13.0,21.0,46,0.00,,,0.00,meteohub,2013-02-20 01:52:00,
2013-02-19 19:57:00,14.2,-1.8,29.22,SSW,202,13.0,21.0,48,0.00,,,0.00,meteohub,2013-02-20 01:57:00,
2013-02-19 20:02:00,14.0,-1.1,29.22,ENE,68,6.0,15.0,50,0.00,,,0.00,meteohub,2013-02-20 02:02:00,
2013-02-19 20:07:00,13.8,-1.3,29.22,East,90,13.0,15.0,50,0.00,,,0.00,meteohub,2013-02-20 02:07:00,
2013-02-19 20:12:00,13.8,-1.3,29.25,NNE,22,8.0,15.0,50,0.00,,,0.00,meteohub,2013-02-20 02:12:00,
2013-02-19 20:17:00,13.8,-1.3,29.25,NNE,22,5.0,17.0,50,0.00,,,0.00,meteohub,2013-02-20 02:17:00,
2013-02-19 20:22:00,14.0,-2.6,29.25,ENE,68,11.0,17.0,47,0.00,,,0.00,meteohub,2013-02-20 02:22:00,
2013-02-19 20:27:00,13.8,-2.2,29.22,NE,45,4.0,17.0,48,0.00,,,0.00,meteohub,2013-02-20 02:27:00,
2013-02-19 20:33:00,13.8,-2.2,29.22,ENE,68,9.0,18.0,48,0.00,,,0.00,meteohub,2013-02-20 02:33:00,
2013-02-19 20:38:00,13.8,-2.2,29.22,NNE,22,10.0,18.0,48,0.00,,,0.00,meteohub,2013-02-20 02:38:00,
2013-02-19 20:43:00,13.8,-2.2,29.25,ENE,68,8.0,18.0,48,0.00,,,0.00,meteohub,2013-02-20 02:43:00,
2013-02-19 20:48:00,13.6,-2.4,29.25,ENE,68,11.0,15.0,48,0.00,,,0.00,meteohub,2013-02-20 02:48:00,
2013-02-19 20:53:00,13.6,-2.4,29.25,NE,45,9.0,15.0,48,0.00,,,0.00,meteohub,2013-02-20 02:53:00,
2013-02-19 20:58:00,13.8,-2.2,29.25,ESE,112,6.0,14.0,48,0.00,,,0.00,meteohub,2013-02-20 02:58:00,
2013-02-19 21:03:00,13.6,-2.4,29.25,ENE,68,6.0,14.0,48,0.00,,,0.00,meteohub,2013-02-20 03:03:00,
2013-02-19 21:08:00,13.6,-2.4,29.25,East,90,8.0,11.0,48,0.00,,,0.00,meteohub,2013-02-20 03:08:00,
2013-02-19 21:13:00,13.6,-2.4,29.25,ENE,68,8.0,13.0,48,0.00,,,0.00,meteohub,2013-02-20 03:13:00,
2013-02-19 21:18:00,13.6,-2.4,29.25,East,90,11.0,13.0,48,0.00,,,0.00,meteohub,2013-02-20 03:18:00,
2013-02-19 21:23:00,13.3,-2.7,29.25,ENE,68,10.0,18.0,48,0.00,,,0.00,meteohub,2013-02-20 03:23:00,
2013-02-19 21:28:00,13.3,-2.7,29.25,ENE,68,9.0,18.0,48,0.00,,,0.00,meteohub,2013-02-20 03:28:00,
2013-02-19 21:33:00,13.3,-2.7,29.25,ENE,68,6.0,18.0,48,0.00,,,0.00,meteohub,2013-02-20 03:33:00,
2013-02-19 21:38:00,13.3,-2.7,29.25,ENE,68,10.0,15.0,48,0.00,,,0.00,meteohub,2013-02-20 03:38:00,
2013-02-19 21:43:00,13.1,-2.9,29.25,ENE,68,13.0,15.0,48,0.00,,,0.00,meteohub,2013-02-20 03:43:00,
2013-02-19 21:48:00,12.9,-3.1,29.25,NE,45,12.0,17.0,48,0.00,,,0.00,meteohub,2013-02-20 03:48:00,
2013-02-19 21:53:00,12.7,-3.3,29.25,East,90,10.0,17.0,48,0.00,,,0.00,meteohub,2013-02-20 03:53:00,
2013-02-19 21:58:00,12.9,-3.1,29.28,ENE,68,8.0,19.0,48,0.00,,,0.00,meteohub,2013-02-20 03:58:00,
2013-02-19 22:03:00,12.9,-3.1,29.28,ENE,68,7.0,19.0,48,0.00,,,0.00,meteohub,2013-02-20 04:03:00,
2013-02-19 22:08:00,12.9,-3.1,29.28,NNE,22,10.0,19.0,48,0.00,,,0.00,meteohub,2013-02-20 04:08:00,
2013-02-19 22:13:00,12.9,-3.1,29.25,ENE,68,9.0,13.0,48,0.00,,,0.00,meteohub,2013-02-20 04:13:00,
2013-02-19 22:18:00,12.7,-3.3,29.25,East,90,6.0,13.0,48,0.00,,,0.00,meteohub,2013-02-20 04:18:00,
2013-02-19 22:23:00,12.7,-3.3,29.25,NE,45,6.0,13.0,48,0.00,,,0.00,meteohub,2013-02-20 04:23:00,
2013-02-19 22:28:00,12.7,-3.3,29.28,ENE,68,9.0,13.0,48,0.00,,,0.00,meteohub,2013-02-20 04:28:00,
2013-02-19 22:33:00,12.7,-3.3,29.28,NNE,22,10.0,13.0,48,0.00,,,0.00,meteohub,2013-02-20 04:33:00,
2013-02-19 22:38:00,12.6,-3.5,29.28,NNE,22,9.0,15.0,48,0.00,,,0.00,meteohub,2013-02-20 04:38:00,
2013-02-19 22:43:00,12.6,-3.5,29.28,ENE,68,10.0,15.0,48,0.00,,,0.00,meteohub,2013-02-20 04:43:00,
2013-02-19 22:48:00,12.6,-3.5,29.28,ENE,68,6.0,15.0,48,0.00,,,0.00,meteohub,2013-02-20 04:48:00,
2013-02-19 22:53:00,12.6,-3.5,29.28,ENE,68,6.0,15.0,48,0.00,,,0.00,meteohub,2013-02-20 04:53:00,
2013-02-19 22:58:00,12.6,-3.5,29.28,ENE,68,8.0,15.0,48,0.00,,,0.00,meteohub,2013-02-20 04:58:00,
2013-02-19 23:00:00,12.6,-3.5,29.28,ENE,68,6.0,15.0,48,0.00,,,0.00,meteohub,2013-02-20 05:00:00,
2013-02-19 23:01:00,12.6,-3.5,29.28,ENE,68,7.0,11.0,48,0.00,,,0.00,meteohub,2013-02-20 05:01:00,
2013-02-19 23:06:00,12.6,-3.5,29.28,East,90,8.0,13.0,48,0.00,,,0.00,meteohub,2013-02-20 05:06:00,
2013-02-19 23:11:00,12.4,-3.5,29.28,NNE,22,8.0,13.0,48,0.00,,,0.00,meteohub,2013-02-20 05:11:00,
2013-02-19 23:16:00,12.2,-3.6,29.28,East,90,9.0,13.0,48,0.00,,,0.00,meteohub,2013-02-20 05:16:00,
2013-02-19 23:21:00,12.2,-3.6,29.28,NNE,22,8.0,13.0,48,0.00,,,0.00,meteohub,2013-02-20 05:21:00,
2013-02-19 23:26:00,12.4,-3.5,29.28,East,90,8.0,14.0,48,0.00,,,0.00,meteohub,2013-02-20 05:26:00,
2013-02-19 23:31:00,12.4,-3.5,29.28,East,90,8.0,14.0,48,0.00,,,0.00,meteohub,2013-02-20 05:31:00,
2013-02-19 23:36:00,12.2,-3.6,29.28,East,90,6.0,14.0,48,0.00,,,0.00,meteohub,2013-02-20 05:36:00,
2013-02-19 23:41:00,12.2,-3.6,29.28,East,90,8.0,17.0,48,0.00,,,0.00,meteohub,2013-02-20 05:41:00,
2013-02-19 23:46:00,12.2,-3.6,29.28,ENE,68,3.0,17.0,48,0.00,,,0.00,meteohub,2013-02-20 05:46:00,
2013-02-19 23:51:00,12.0,-3.8,29.28,NNE,22,6.0,14.0,48,0.00,,,0.00,meteohub,2013-02-20 05:51:00,
2013-02-19 23:56:00,12.0,-3.8,29.28,NNE,22,9.0,14.0,48,0.00,,,0.00,meteohub,2013-02-20 05:56:00,